Details From LMML - La Valette Luqa
To LFMN - Nice/Cote d'Azur
Flight Number -
Tags generated
Created
Modified
Stats Distance 578 nm / 1,070 km
Max Altitude 35,000 ft / 10,668 m
Waypoints 12
Social Downloads 3
Likes 0
Share VATSIM

Download

Looking for another format? Having issues loading an existing format? Contact us
Advertisement - Login to hide

Notes

Basic altitude profile: - Ascent Rate: 2500ft/min - Ascent Speed: 250kts - Cruise Altitude: 35000ft - Cruise Speed: 420kts - Descent Rate: 1500ft/min - Descent Speed: 250kts Options: - Use NATs: yes - Use PACOTS: yes - Use low airways: yes - Use high airways: yes

Route

LMML MABOX UM622 OMEDA LFMN

ID Type Via Altitude (ft/m) Position (lat/lon) Dist (leg/tot) Name
O LMML APT - 0 / 0 35.84948 / 14.48184 - / 0 nm La Valette Luqa
MABOX FIX - 35,000 / 10,668 37.16528 / 13.19083 100 / 100 nm
ADEXI FIX UM622 (AWY-HI) 35,000 / 10,668 37.34556 / 13.02528 13 / 114 nm
TRP VOR UM622 (AWY-HI) 35,000 / 10,668 37.89609 / 12.51333 41 / 155 nm TRAPANI VORTAC
KAPIL FIX UM622 (AWY-HI) 35,000 / 10,668 38.35611 / 12.12583 33 / 188 nm
GERMO FIX UM622 (AWY-HI) 35,000 / 10,668 39.24972 / 11.35694 64 / 252 nm
QUENN FIX UM622 (AWY-HI) 35,000 / 10,668 40.16500 / 10.54361 66 / 319 nm
SUKUN FIX UM622 (AWY-HI) 35,000 / 10,668 40.75056 / 9.91111 45 / 364 nm
MADKA FIX UM622 (AWY-HI) 35,000 / 10,668 41.33333 / 9.26833 45 / 410 nm
AJO VOR UM622 (AWY-HI) 28,400 / 8,656 41.77053 / 8.77467 34 / 444 nm AJACCIO VOR-DME
OMEDA FIX UM622 (AWY-HI) 20,200 / 6,157 42.32889 / 8.36194 38 / 483 nm
O LFMN APT - 0 / 0 43.65798 / 7.21536 94 / 577 nm Nice/Cote d'Azur

Altitude Profile

Advertisement - Login to hide

Weather


0- 5 10 15 20 25 30 35+ Temperature / °C

Clouds and Precipitation
Forecast for 2020-01-23 00:00 UTC. Updated 5 hours ago

Ground ~20,000 ft ~40,000 ft Winds

LMML

Details ICAO LMML (MLA)
Name Luqa-Malta Intl
Region Malta
Timezone Europe/Malta (UTC+1.0)
Stats Elevation 297 ft / 91 m (AMSL)
Location 35.849400° 14.481800°
Runways 2
Magnetic Variation 3.219° E

METAR

LMML 230215Z 14006KT 9999 BKN029 13/09 Q1028 NOSIG

Decode

TAF

TAF LMML 222300Z 2300/2324 15010KT 9999 BKN025= TAF OKBK 222245Z 2300/2406 30012KT 7000 NSC TEMPO 2300/2305 VRB03KT

Decode

Departure Runways

ID Width Length Bearing (true/mag) Surface Threshold Overrun Markings Lighting
05 148 ft / 45 m 7,794 ft / 2,376 m 54.40° / 51.18° ASPHALT 0 ft / 0 m 95 ft / 29 m APP EDGE THRESHOLD MALS
13 197 ft / 60 m 11,618 ft / 3,541 m 134.87° / 131.65° ASPHALT 0 ft / 0 m 0 ft / 0 m PREC-APP CENTERLINE EDGE THRESHOLD ALSF-I
23 148 ft / 45 m 7,794 ft / 2,376 m 234.42° / 231.20° ASPHALT 0 ft / 0 m 102 ft / 31 m APP EDGE THRESHOLD MALS
31 197 ft / 60 m 11,618 ft / 3,541 m 314.89° / 311.67° ASPHALT 614 ft / 187 m 177 ft / 54 m PREC-APP CENTERLINE EDGE THRESHOLD ALSF-I

LFMN

Details ICAO LFMN (NCE)
Name Nice-Cote d'Azur
Region France
Timezone Unknown
Stats Elevation 12 ft / 4 m (AMSL)
Location 43.658400° 7.215760°
Runways 2
Magnetic Variation 2.254° E

METAR

LFMN 230230Z 32012KT CAVOK 08/01 Q1027 NOSIG

Decode

TAF

TAF LFMN 230200Z 2303/2409 32010KT CAVOK PROB40 TEMPO 2303/2308 07017KT BECMG 2308/2310 08020KT TEMPO 2310/2312 08022G32KT BECMG 2317/2320 33010KT

Decode

Destination Runways

ID Width Length Bearing (true/mag) Surface Threshold Overrun Markings Lighting
04L 148 ft / 45 m 8,992 ft / 2,741 m 44.86° / 42.61° ASPHALT 0 ft / 0 m 161 ft / 49 m PREC-APP CENTERLINE EDGE THRESHOLD REIL-OMNI
04R 148 ft / 45 m 9,706 ft / 2,958 m 44.86° / 42.61° ASPHALT 0 ft / 0 m 417 ft / 127 m PREC-APP CENTERLINE EDGE THRESHOLD REIL-OMNI
22L 148 ft / 45 m 9,706 ft / 2,958 m 224.88° / 222.63° ASPHALT 0 ft / 0 m 525 ft / 160 m PREC-APP CENTERLINE EDGE THRESHOLD REIL-OMNI
22R 148 ft / 45 m 8,992 ft / 2,741 m 224.88° / 222.62° ASPHALT 564 ft / 172 m 0 ft / 0 m PREC-APP CENTERLINE EDGE THRESHOLD REIL-OMNI

Approach Navaids

Runway Type Ident Frequency Range Bearing (true/mag) Slope Elevation
04L DME NI 109.95 MHz 27 nm / 50 km - - 12 ft / 4 m (AMSL)
04L LOC-ILS NI 109.95 MHz 27 nm / 50 km 44.84° / 42.59 ° - 12 ft / 4 m (AMSL)
04L GS NI 109.95 MHz 27 nm / 50 km 44.84° / 42.59 ° 3.00° 12 ft / 4 m (AMSL)
04R DME NA 110.70 MHz 27 nm / 50 km - - 12 ft / 4 m (AMSL)
04R LOC-ILS NA 110.70 MHz 27 nm / 50 km 44.86° / 42.61 ° - 12 ft / 4 m (AMSL)
04R GS NA 110.70 MHz 27 nm / 50 km 44.86° / 42.61 ° 3.00° 12 ft / 4 m (AMSL)

Popular Alternatives